Klodzko, Poland
Current Conditions -  °F | °C
As of 9:30 AM on Thursday 23 Oct 2014 (Local Time) from EPWR Reporting Station
Haze Haze  
Wind Chill: 40°   Ceiling: 500
Heat Index: 45°   Visibility: 3mi
Dew Point: 43°   Wind: 9mph
Humidity: 93%   Direction: 10°N
Pressure: 30.03"   Gusts: NA
Location:  50.44°N, 16.66°E
Report Text: EPWR 230730Z 01008KT 5000 BR BKN005 07/06 Q1017
Loading
Personal Weather Stations






























Interactive Weather Map
Tropical Storm Tracking
New forecast layout! Learn more

10-Day Weather Forecast

Advertisements
Track Severe Weather on mobile